Time;durP1;ratioP1;P1;durP2;ratioP2;P2;SDS_P1;SDS_P2;PMS_P1;PMS_P2;Temp;Humidity;BMP_temperature;BMP_pressure;BME280_temperature;BME280_humidity;BME280_pressure;Samples;Min_cycle;Max_cycle;Signal;HPM_P1;HPM_P2
2022/11/01 00:00:28;;;;;;;41.25;30.37;;;24.20;92.10;;;;;;1859614;76;21206;-84
2022/11/01 00:02:59;;;;;;;36.60;26.70;;;24.20;92.00;;;;;;1860814;76;21069;-86
2022/11/01 00:05:30;;;;;;;38.15;28.25;;;24.20;91.90;;;;;;1866041;75;22015;-84
2022/11/01 00:08:02;;;;;;;40.98;30.10;;;24.30;92.00;;;;;;1863882;75;21052;-86
2022/11/01 00:10:33;;;;;;;40.40;29.70;;;24.30;92.00;;;;;;1869288;75;21148;-86
2022/11/01 00:13:04;;;;;;;37.93;29.27;;;24.30;92.00;;;;;;1872451;76;21120;-85
2022/11/01 00:15:35;;;;;;;35.23;27.25;;;24.30;92.00;;;;;;1863217;76;21500;-85
2022/11/01 00:18:06;;;;;;;36.85;29.35;;;24.30;92.10;;;;;;1873614;76;21116;-84
2022/11/01 00:20:37;;;;;;;31.80;25.68;;;24.30;91.90;;;;;;1870803;75;21207;-83
2022/11/01 00:23:07;;;;;;;35.52;26.52;;;24.40;91.90;;;;;;1871210;75;21172;-86
2022/11/01 00:25:40;;;;;;;34.48;26.95;;;24.40;91.80;;;;;;1873517;76;21199;-85
2022/11/01 00:28:11;;;;;;;34.67;27.07;;;24.40;91.80;;;;;;1875902;76;21205;-84
2022/11/01 00:30:42;;;;;;;36.00;26.40;;;24.50;91.90;;;;;;1875300;75;21048;-84
2022/11/01 00:33:13;;;;;;;41.23;28.40;;;24.50;92.00;;;;;;1865137;76;21127;-84
2022/11/01 00:35:45;;;;;;;38.08;27.95;;;24.50;92.00;;;;;;1871251;76;21216;-84
2022/11/01 00:38:18;;;;;;;31.48;26.20;;;24.60;92.10;;;;;;1877297;75;21083;-86
2022/11/01 00:40:48;;;;;;;32.13;26.02;;;24.60;91.80;;;;;;1863281;75;21139;-83
2022/11/01 00:43:19;;;;;;;30.85;25.40;;;24.70;92.00;;;;;;1868626;76;21404;-83
2022/11/01 00:45:51;;;;;;;32.53;24.77;;;24.70;91.90;;;;;;1863815;76;21116;-85
2022/11/01 00:48:28;;;;;;;30.97;25.25;;;24.80;91.70;;;;;;1862931;76;21175;-84
2022/11/01 00:51:00;;;;;;;31.15;24.92;;;24.80;91.70;;;;;;1868590;75;21183;-84
2022/11/01 00:53:30;;;;;;;33.02;23.83;;;24.80;91.40;;;;;;1868474;76;21661;-84
2022/11/01 00:56:03;;;;;;;33.15;23.62;;;24.90;91.10;;;;;;1865225;76;21089;-85
2022/11/01 00:58:34;;;;;;;29.20;22.87;;;25.00;90.90;;;;;;1874220;76;21170;-86
2022/11/01 01:01:08;;;;;;;26.12;22.15;;;25.00;90.40;;;;;;1849983;76;21601;-84
2022/11/01 01:03:39;;;;;;;30.17;19.65;;;25.00;90.30;;;;;;1877494;75;21143;-85
2022/11/01 01:06:10;;;;;;;24.65;20.25;;;25.00;89.70;;;;;;1878624;76;21083;-84
2022/11/01 01:08:41;;;;;;;27.30;20.32;;;25.10;89.90;;;;;;1881238;75;21053;-85
2022/11/01 01:11:16;;;;;;;24.35;19.32;;;25.20;89.90;;;;;;1877697;76;21103;-85
2022/11/01 01:13:53;;;;;;;25.60;20.45;;;25.20;89.40;;;;;;1882497;76;21556;-85
2022/11/01 01:16:26;;;;;;;24.92;20.10;;;25.30;89.30;;;;;;1860783;76;21053;-84
2022/11/01 01:18:57;;;;;;;29.25;20.80;;;25.40;89.50;;;;;;1866522;76;21180;-87
2022/11/01 01:21:28;;;;;;;29.77;22.48;;;25.40;88.40;;;;;;1865147;76;21390;-85
2022/11/01 01:23:59;;;;;;;27.70;21.42;;;25.40;88.60;;;;;;1871852;75;21084;-85
2022/11/01 01:26:33;;;;;;;30.12;24.15;;;25.40;88.40;;;;;;1862920;76;21111;-85
2022/11/01 01:29:04;;;;;;;24.30;18.10;;;25.40;88.60;;;;;;1866270;75;21109;-84
2022/11/01 01:31:34;;;;;;;25.80;19.23;;;25.40;87.60;;;;;;1865450;76;21264;-85
2022/11/01 01:34:05;;;;;;;24.25;18.25;;;25.50;87.00;;;;;;1876264;75;21145;-84
2022/11/01 01:36:44;;;;;;;18.92;15.45;;;25.40;86.10;;;;;;1879828;76;21131;-86
2022/11/01 01:39:15;;;;;;;20.35;13.80;;;25.50;85.10;;;;;;1875089;76;21112;-84
2022/11/01 01:41:56;;;;;;;15.43;12.07;;;25.50;83.70;;;;;;1867852;76;21143;-84
2022/11/01 01:44:51;;;;;;;14.58;11.95;;;25.60;81.90;;;;;;1875845;76;21057;-84
2022/11/01 01:47:31;;;;;;;16.15;12.55;;;25.50;80.10;;;;;;1872624;76;21159;-87
2022/11/01 01:50:10;;;;;;;16.32;11.88;;;25.60;81.30;;;;;;1871226;76;21103;-84
2022/11/01 01:52:49;;;;;;;14.53;11.45;;;25.70;80.00;;;;;;1854513;76;21080;-84
2022/11/01 01:55:23;;;;;;;18.67;11.40;;;25.70;78.50;;;;;;1856030;76;21128;-88
2022/11/01 01:57:56;;;;;;;17.02;11.00;;;25.70;77.00;;;;;;1859765;76;21138;-91
2022/11/01 02:00:27;;;;;;;12.18;10.30;;;25.80;76.50;;;;;;1872280;76;21771;-85
2022/11/01 02:02:59;;;;;;;13.98;11.30;;;25.80;75.00;;;;;;1868082;76;21135;-86
2022/11/01 02:05:47;;;;;;;16.85;10.85;;;25.80;76.40;;;;;;1861287;76;21065;-87
2022/11/01 02:08:26;;;;;;;13.85;11.30;;;25.90;77.00;;;;;;1868832;76;21187;-88
2022/11/01 02:10:51;;;;;;;15.83;12.33;;;25.90;77.60;;;;;;1838187;77;21115;-84
2022/11/01 02:13:22;;;;;;;16.65;11.18;;;26.00;76.70;;;;;;1826629;78;21297;-85
2022/11/01 02:16:04;;;;;;;14.10;11.97;;;26.00;77.10;;;;;;1874311;75;21119;-84
2022/11/01 02:18:50;;;;;;;13.60;11.05;;;26.10;77.30;;;;;;1878950;75;21646;-85
2022/11/01 02:21:46;;;;;;;15.35;10.98;;;26.20;75.30;;;;;;1875929;76;21482;-85
2022/11/01 02:24:54;;;;;;;16.23;10.18;;;26.20;75.80;;;;;;1859765;75;21189;-85
2022/11/01 02:27:49;;;;;;;11.73;10.00;;;26.20;75.40;;;;;;1879054;75;21203;-86
2022/11/01 02:30:21;;;;;;;13.18;10.35;;;26.30;74.30;;;;;;1887890;75;21052;-86
2022/11/01 02:33:14;;;;;;;13.95;9.85;;;26.40;73.60;;;;;;1899423;75;21158;-86
2022/11/01 02:35:54;;;;;;;15.25;10.08;;;26.40;73.60;;;;;;1873728;75;21280;-86
2022/11/01 02:38:30;;;;;;;14.87;10.65;;;26.40;73.70;;;;;;1870765;75;21125;-85
2022/11/01 02:41:07;;;;;;;13.38;9.80;;;26.50;72.80;;;;;;1882455;75;21177;-87
2022/11/01 02:43:38;;;;;;;;;;;26.50;72.80;;;;;;1847017;75;21696;-85
2022/11/01 02:48:59;;;;;;;14.73;10.30;;;26.50;73.50;;;;;;1895826;75;22215;-86
2022/11/01 02:51:34;;;;;;;12.47;9.33;;;26.60;73.40;;;;;;1890052;74;21175;-84
2022/11/01 02:54:10;;;;;;;13.75;10.40;;;26.60;73.10;;;;;;1900707;75;21213;-84
2022/11/01 02:56:41;;;;;;;12.47;10.90;;;26.60;73.70;;;;;;1886485;75;21138;-86
2022/11/01 02:59:17;;;;;;;12.85;9.93;;;26.70;72.40;;;;;;1878611;75;21198;-85
2022/11/01 03:01:54;;;;;;;15.32;10.03;;;26.80;72.30;;;;;;1886792;75;21061;-83
2022/11/01 03:04:33;;;;;;;14.47;10.68;;;26.90;72.50;;;;;;1879210;75;21680;-83
2022/11/01 03:07:07;;;;;;;12.53;9.85;;;26.90;72.40;;;;;;1869889;75;21733;-85
2022/11/01 03:09:39;;;;;;;16.62;10.38;;;27.10;70.60;;;;;;1877697;75;21582;-86
2022/11/01 03:12:16;;;;;;;12.23;9.58;;;27.20;71.40;;;;;;1890306;75;21076;-86
2022/11/01 03:15:07;;;;;;;13.60;8.93;;;27.40;71.30;;;;;;1875313;75;21204;-85
2022/11/01 03:17:40;;;;;;;10.93;9.00;;;27.40;70.90;;;;;;1878537;75;21232;-85
2022/11/01 03:20:17;;;;;;;14.13;8.65;;;27.60;70.20;;;;;;1849517;75;21189;-85
2022/11/01 03:22:56;;;;;;;12.88;8.93;;;27.70;69.30;;;;;;1873663;75;21125;-85
2022/11/01 03:25:43;;;;;;;13.05;9.38;;;27.70;68.90;;;;;;1900665;75;21131;-86
2022/11/01 03:28:23;;;;;;;;;;;27.80;68.90;;;;;;1895022;75;21075;-86
2022/11/01 03:31:14;;;;;;;9.98;8.90;;;27.90;69.70;;;;;;1828686;78;20165;-85
2022/11/01 03:33:50;;;;;;;13.83;10.48;;;27.90;69.20;;;;;;1881459;75;21116;-86
2022/11/01 03:36:25;;;;;;;12.85;10.05;;;28.10;69.00;;;;;;1890820;75;21103;-84
2022/11/01 03:38:58;;;;;;;12.58;8.95;;;28.20;68.70;;;;;;1908240;75;21613;-85
2022/11/01 03:41:49;;;;;;;11.75;9.18;;;28.30;68.20;;;;;;1881892;75;21101;-85
2022/11/01 03:44:20;;;;;;;10.95;8.38;;;28.40;67.70;;;;;;1856958;76;21114;-85
2022/11/01 03:46:53;;;;;;;13.03;9.30;;;28.50;67.20;;;;;;1854899;77;21131;-86
2022/11/01 03:49:24;;;;;;;13.03;8.53;;;28.60;67.10;;;;;;1865684;75;21065;-85
2022/11/01 03:51:59;;;;;;;10.98;8.58;;;28.70;65.20;;;;;;1863517;75;21108;-85
2022/11/01 03:54:33;;;;;;;10.72;8.28;;;28.80;65.10;;;;;;1882168;75;21083;-85
2022/11/01 03:57:04;;;;;;;9.85;8.33;;;28.80;64.70;;;;;;1890721;75;21155;-86
2022/11/01 03:59:35;;;;;;;10.55;8.38;;;29.00;64.20;;;;;;1872080;75;21099;-85
2022/11/01 04:02:11;;;;;;;13.15;8.20;;;29.00;63.30;;;;;;1880574;75;21060;-84
2022/11/01 04:04:42;;;;;;;9.87;8.20;;;29.00;62.70;;;;;;1860182;75;21134;-85
2022/11/01 04:07:14;;;;;;;12.30;8.28;;;29.00;62.00;;;;;;1881194;75;21214;-85
2022/11/01 04:09:47;;;;;;;10.08;7.62;;;29.10;61.90;;;;;;1849799;75;21532;-85
2022/11/01 04:12:18;;;;;;;9.50;7.50;;;29.10;61.30;;;;;;1855395;75;21195;-84
2022/11/01 04:20:41;;;;;;;;;;;;;;;;;;;;;
2022/11/01 04:23:09;;;;;;;11.28;7.53;;;29.30;60.50;;;;;;1836493;75;21532;-86
2022/11/01 04:25:40;;;;;;;9.08;7.62;;;29.40;60.90;;;;;;1847581;75;21178;-85
2022/11/01 04:28:10;;;;;;;10.28;8.05;;;29.40;60.80;;;;;;1870262;76;21127;-86
2022/11/01 04:30:42;;;;;;;9.43;7.85;;;29.50;60.40;;;;;;1864236;76;21161;-86
2022/11/01 04:33:13;;;;;;;9.80;7.37;;;29.50;60.50;;;;;;1854885;77;21113;-85
2022/11/01 04:35:44;;;;;;;11.30;8.15;;;29.60;59.90;;;;;;1840934;77;21123;-85
2022/11/01 04:38:16;;;;;;;10.13;7.30;;;29.70;60.00;;;;;;1895579;75;21111;-87
2022/11/01 04:40:55;;;;;;;10.50;7.92;;;29.70;59.90;;;;;;1859859;75;21177;-86
2022/11/01 04:43:29;;;;;;;10.80;7.45;;;29.80;60.00;;;;;;1896021;75;21622;-85
2022/11/01 04:46:00;;;;;;;9.08;7.20;;;29.90;58.50;;;;;;1891274;76;21697;-86
2022/11/01 04:48:31;;;;;;;10.85;8.08;;;29.90;58.10;;;;;;1879243;75;21119;-86
2022/11/01 04:51:02;;;;;;;9.80;7.78;;;29.90;58.50;;;;;;1867336;75;21551;-85
2022/11/01 04:53:33;;;;;;;12.05;7.35;;;30.00;58.80;;;;;;1880101;76;21158;-86
2022/11/01 04:56:05;;;;;;;11.33;8.08;;;30.10;59.60;;;;;;1883731;75;21093;-86
2022/11/01 04:58:36;;;;;;;10.38;7.60;;;30.10;57.60;;;;;;1857244;75;21229;-84
2022/11/01 05:01:09;;;;;;;15.65;7.72;;;30.20;57.50;;;;;;1890869;75;21555;-85
2022/11/01 05:03:40;;;;;;;10.15;8.03;;;30.10;58.10;;;;;;1845930;75;21060;-85
2022/11/01 05:06:11;;;;;;;9.88;7.33;;;30.10;57.30;;;;;;1867049;76;21228;-84
2022/11/01 05:08:45;;;;;;;10.93;7.22;;;30.10;58.20;;;;;;1876439;76;21119;-86
2022/11/01 05:11:24;;;;;;;9.53;6.87;;;30.10;57.80;;;;;;1881710;75;21136;-85
2022/11/01 05:13:52;;;;;;;10.05;6.62;;;30.10;57.40;;;;;;1838655;76;21198;-83
2022/11/01 05:16:25;;;;;;;15.10;7.10;;;30.10;57.80;;;;;;1857484;77;21093;-85
2022/11/01 05:18:55;;;;;;;9.90;7.60;;;30.10;58.40;;;;;;1876456;76;21143;-86
2022/11/01 05:21:26;;;;;;;13.88;7.45;;;30.20;57.90;;;;;;1862277;75;21643;-85
2022/11/01 05:23:57;;;;;;;11.55;8.48;;;30.30;57.70;;;;;;1866550;75;21112;-86
2022/11/01 05:26:48;;;;;;;11.60;7.58;;;30.30;57.50;;;;;;1876519;76;21554;-85
2022/11/01 05:29:19;;;;;;;9.23;7.25;;;30.40;56.70;;;;;;1850053;76;21115;-85
2022/11/01 05:31:51;;;;;;;9.00;7.25;;;30.50;57.30;;;;;;1845992;76;21154;-84
2022/11/01 05:34:22;;;;;;;9.15;7.55;;;30.60;56.20;;;;;;1845672;77;21177;-84
2022/11/01 05:36:57;;;;;;;9.10;7.40;;;30.60;57.30;;;;;;1846161;77;21082;-83
2022/11/01 05:39:27;;;;;;;12.73;7.58;;;30.60;57.40;;;;;;1841842;77;21060;-86
2022/11/01 05:41:58;;;;;;;12.85;8.15;;;30.60;56.70;;;;;;1845114;77;21796;-84
2022/11/01 05:44:30;;;;;;;11.00;7.00;;;30.60;56.70;;;;;;1827219;77;21216;-85
2022/11/01 05:47:03;;;;;;;12.43;7.20;;;30.60;57.50;;;;;;1844772;77;22415;-84
2022/11/01 05:49:34;;;;;;;12.78;7.08;;;30.70;57.30;;;;;;1847198;77;21159;-84
2022/11/01 05:52:05;;;;;;;10.85;6.47;;;30.70;57.50;;;;;;1843142;77;21236;-83
2022/11/01 05:54:36;;;;;;;7.75;6.65;;;30.80;56.10;;;;;;1847226;77;21602;-83
2022/11/01 05:57:07;;;;;;;9.88;6.85;;;30.80;55.50;;;;;;1846139;77;21127;-85
2022/11/01 05:59:38;;;;;;;12.45;7.08;;;30.90;55.30;;;;;;1846955;76;22057;-85
2022/11/01 06:02:09;;;;;;;11.20;7.30;;;30.90;55.90;;;;;;1846878;77;21089;-85
2022/11/01 06:04:41;;;;;;;9.78;6.05;;;31.00;55.90;;;;;;1840383;77;21136;-85
2022/11/01 06:07:12;;;;;;;9.90;6.17;;;31.00;54.50;;;;;;1847364;77;21120;-85
2022/11/01 06:09:43;;;;;;;9.23;6.28;;;31.10;54.20;;;;;;1847984;77;21096;-85
2022/11/01 06:12:14;;;;;;;9.03;6.33;;;31.10;54.80;;;;;;1844942;76;21123;-85
2022/11/01 06:14:45;;;;;;;9.88;6.42;;;31.10;55.00;;;;;;1848845;77;21088;-86
2022/11/01 06:17:15;;;;;;;9.13;7.00;;;31.10;54.90;;;;;;1846757;77;21189;-86
2022/11/01 06:19:46;;;;;;;8.28;6.58;;;31.10;53.60;;;;;;1846868;77;21185;-85
2022/11/01 06:22:17;;;;;;;8.05;6.50;;;31.10;53.30;;;;;;1843924;77;21083;-85
2022/11/01 06:24:48;;;;;;;9.23;6.62;;;31.10;53.50;;;;;;1848247;77;21217;-85
2022/11/01 06:27:26;;;;;;;10.20;6.10;;;31.20;54.10;;;;;;1842620;77;21606;-85
2022/11/01 06:29:57;;;;;;;10.80;7.45;;;31.20;52.70;;;;;;1828201;78;21241;-86
2022/11/01 06:32:28;;;;;;;6.58;5.40;;;31.20;53.50;;;;;;1829242;78;21217;-84
2022/11/01 06:34:59;;;;;;;9.38;6.33;;;31.20;52.80;;;;;;1838567;78;21092;-86
2022/11/01 06:37:30;;;;;;;9.63;5.67;;;31.20;52.80;;;;;;1838083;78;21141;-85
2022/11/01 06:40:01;;;;;;;7.90;6.05;;;31.30;51.70;;;;;;1839132;78;21158;-87
2022/11/01 06:42:32;;;;;;;11.55;6.67;;;31.30;51.80;;;;;;1840139;76;21579;-86
2022/11/01 06:45:03;;;;;;;7.37;5.90;;;31.30;51.80;;;;;;1819309;78;21147;-86
2022/11/01 06:47:37;;;;;;;10.18;5.70;;;31.30;52.70;;;;;;1831374;77;21599;-85
2022/11/01 06:50:09;;;;;;;7.95;5.55;;;31.30;52.40;;;;;;1834219;78;21140;-85
2022/11/01 06:52:40;;;;;;;7.87;5.83;;;31.30;51.50;;;;;;1838222;78;21135;-86
2022/11/01 06:55:10;;;;;;;10.08;6.28;;;31.30;51.10;;;;;;1846367;76;21154;-85
2022/11/01 06:57:41;;;;;;;8.10;5.55;;;31.40;51.10;;;;;;1838627;78;21448;-86
2022/11/01 07:00:15;;;;;;;7.03;5.62;;;31.30;50.80;;;;;;1750719;81;21225;-86
2022/11/01 07:02:49;;;;;;;7.17;5.70;;;31.40;51.60;;;;;;1839788;78;21118;-85
2022/11/01 07:05:28;;;;;;;8.90;6.35;;;31.30;51.20;;;;;;1840251;78;21115;-86
2022/11/01 07:07:53;;;;;;;9.95;6.17;;;31.20;50.80;;;;;;1837039;78;21147;-84
2022/11/01 07:10:24;;;;;;;8.58;5.65;;;31.20;50.20;;;;;;1838449;77;21650;-87
2022/11/01 07:13:00;;;;;;;8.60;5.92;;;31.20;51.00;;;;;;1838590;78;21365;-87
2022/11/01 07:15:32;;;;;;;8.08;5.37;;;31.10;51.20;;;;;;1821978;78;21172;-86
2022/11/01 07:18:08;;;;;;;9.40;5.60;;;31.10;51.10;;;;;;1829183;78;21092;-89
2022/11/01 07:20:59;;;;;;;10.65;5.53;;;31.10;50.80;;;;;;1839930;78;21096;-86
2022/11/01 07:23:32;;;;;;;7.00;5.33;;;31.00;51.10;;;;;;1799434;80;21928;-86
2022/11/01 07:26:04;;;;;;;8.85;5.80;;;31.00;51.80;;;;;;1813139;78;21610;-86
2022/11/01 07:28:36;;;;;;;8.28;5.62;;;31.00;51.20;;;;;;1827089;78;22086;-87
2022/11/01 07:31:09;;;;;;;8.20;5.53;;;30.90;51.40;;;;;;1827283;78;21213;-87
2022/11/01 07:33:40;;;;;;;9.00;5.90;;;30.90;51.80;;;;;;1808328;78;21234;-86
2022/11/01 07:36:11;;;;;;;7.62;5.70;;;30.90;53.30;;;;;;1819926;78;21606;-86
2022/11/01 07:38:43;;;;;;;8.43;6.05;;;30.90;51.30;;;;;;1827002;78;21201;-87
2022/11/01 07:41:14;;;;;;;8.03;5.80;;;30.90;52.30;;;;;;1811974;78;21186;-85
2022/11/01 07:43:48;;;;;;;7.72;5.83;;;30.90;52.10;;;;;;1812823;79;21201;-87
2022/11/01 07:46:19;;;;;;;8.73;5.92;;;30.90;51.70;;;;;;1800883;79;21171;-86
2022/11/01 07:48:50;;;;;;;9.90;5.80;;;30.90;51.60;;;;;;1795308;79;21160;-86
2022/11/01 07:51:21;;;;;;;7.00;5.28;;;31.00;51.30;;;;;;1783621;80;21131;-86
2022/11/01 07:53:52;;;;;;;7.97;5.65;;;31.00;51.20;;;;;;1763327;80;21163;-86
2022/11/01 07:56:25;;;;;;;6.53;5.47;;;30.90;51.10;;;;;;1824923;77;21163;-86
2022/11/01 07:58:56;;;;;;;7.83;5.28;;;30.90;50.90;;;;;;1822336;78;21142;-87
2022/11/01 08:01:27;;;;;;;10.58;5.97;;;30.90;50.90;;;;;;1803633;78;21151;-86
2022/11/01 08:03:58;;;;;;;8.43;5.45;;;30.80;51.60;;;;;;1818673;78;21143;-85
2022/11/01 08:06:29;;;;;;;6.97;5.85;;;30.80;52.00;;;;;;1795323;79;21096;-86
2022/11/01 08:09:02;;;;;;;8.40;5.78;;;30.80;51.20;;;;;;1802138;78;21186;-87
2022/11/01 08:11:33;;;;;;;6.75;6.00;;;30.80;51.50;;;;;;1818054;79;21142;-87
2022/11/01 08:14:05;;;;;;;8.68;5.35;;;30.80;51.70;;;;;;1818134;79;21151;-86
2022/11/01 08:16:39;;;;;;;10.98;5.90;;;30.80;51.70;;;;;;1789499;78;21108;-85
2022/11/01 08:19:11;;;;;;;7.03;6.03;;;30.80;51.80;;;;;;1793186;78;21578;-87
2022/11/01 08:21:42;;;;;;;9.08;6.35;;;30.80;51.90;;;;;;1794412;78;21129;-85
2022/11/01 08:24:13;;;;;;;8.95;5.50;;;30.70;52.10;;;;;;1800153;78;21159;-86
2022/11/01 08:26:45;;;;;;;7.78;5.60;;;30.70;51.30;;;;;;1803519;78;21167;-87
2022/11/01 08:29:16;;;;;;;9.00;5.65;;;30.70;51.30;;;;;;1806255;78;21231;-87
2022/11/01 08:31:50;;;;;;;9.25;5.65;;;30.60;51.60;;;;;;1802996;78;21210;-85
2022/11/01 08:34:21;;;;;;;10.20;5.90;;;30.70;51.70;;;;;;1817708;78;21128;-87
2022/11/01 08:36:52;;;;;;;8.28;5.83;;;30.70;52.10;;;;;;1810836;78;21311;-85
2022/11/01 08:39:23;;;;;;;9.00;5.25;;;30.60;50.80;;;;;;1765380;79;21116;-85
2022/11/01 08:41:56;;;;;;;11.40;6.15;;;30.60;51.20;;;;;;1803447;79;21104;-86
2022/11/01 08:44:31;;;;;;;6.05;4.95;;;30.70;50.40;;;;;;1804052;78;21187;-84
2022/11/01 08:47:00;;;;;;;7.67;5.50;;;30.60;51.10;;;;;;1797424;78;21202;-84
2022/11/01 08:49:33;;;;;;;8.28;5.20;;;30.60;51.20;;;;;;1804753;77;21175;-85
2022/11/01 08:52:05;;;;;;;7.28;5.80;;;30.60;51.20;;;;;;1803769;78;21127;-85
2022/11/01 08:54:39;;;;;;;8.53;5.80;;;30.60;51.50;;;;;;1824069;78;21638;-84
2022/11/01 08:57:09;;;;;;;7.90;5.60;;;30.60;51.50;;;;;;1802884;78;21627;-86
2022/11/01 08:59:40;;;;;;;8.15;5.60;;;30.60;50.90;;;;;;1802995;79;21238;-86
2022/11/01 09:02:12;;;;;;;6.90;5.85;;;30.60;50.80;;;;;;1803692;79;21190;-84
2022/11/01 09:04:43;;;;;;;9.58;5.28;;;30.60;51.40;;;;;;1800803;78;21223;-84
2022/11/01 09:07:16;;;;;;;7.53;5.15;;;30.60;51.40;;;;;;1810037;77;21116;-85
2022/11/01 09:09:47;;;;;;;9.83;5.03;;;30.60;50.90;;;;;;1806774;78;21547;-84
2022/11/01 09:12:23;;;;;;;12.55;5.30;;;30.50;50.90;;;;;;1798585;77;21139;-84
2022/11/01 09:14:58;;;;;;;8.15;4.95;;;30.50;50.60;;;;;;1818429;78;21138;-84
2022/11/01 09:17:28;;;;;;;9.05;5.42;;;30.50;50.80;;;;;;1807064;79;21179;-85
2022/11/01 09:20:03;;;;;;;9.35;5.87;;;30.50;50.80;;;;;;1804606;79;21222;-85
2022/11/01 09:25:45;;;;;;;8.08;4.83;;;30.40;51.10;;;;;;1821735;78;21151;-85
2022/11/01 09:28:02;;;;;;;9.20;5.00;;;30.40;50.30;;;;;;1813686;77;21224;-84
2022/11/01 09:30:33;;;;;;;6.60;5.05;;;30.40;50.20;;;;;;1813161;79;21182;-84
2022/11/01 09:33:12;;;;;;;7.17;5.42;;;30.30;50.60;;;;;;1815609;79;21580;-84
2022/11/01 09:35:39;;;;;;;7.60;4.92;;;30.30;50.50;;;;;;1814752;77;21206;-85
2022/11/01 09:38:16;;;;;;;6.10;4.70;;;30.30;50.50;;;;;;1835696;78;21154;-85
2022/11/01 09:40:58;;;;;;;9.18;5.00;;;30.20;50.70;;;;;;1819497;78;21651;-86
2022/11/01 09:43:33;;;;;;;6.95;5.62;;;30.20;51.80;;;;;;1803706;78;21277;-86
2022/11/01 09:46:07;;;;;;;9.03;4.87;;;30.20;51.10;;;;;;1791216;79;21788;-84
2022/11/01 09:48:42;;;;;;;6.70;5.10;;;30.10;51.10;;;;;;1780854;79;21744;-84
2022/11/01 09:51:17;;;;;;;10.10;5.10;;;30.10;50.70;;;;;;1782527;79;21175;-85
2022/11/01 09:53:51;;;;;;;9.90;5.00;;;30.00;51.50;;;;;;1814375;79;21092;-85
2022/11/01 09:56:30;;;;;;;13.28;5.60;;;30.00;52.00;;;;;;1812685;78;21206;-86
2022/11/01 09:59:09;;;;;;;7.80;5.65;;;30.00;52.00;;;;;;1815741;78;21148;-84
2022/11/01 10:02:01;;;;;;;11.10;6.72;;;30.00;54.60;;;;;;1812587;78;21844;-86
2022/11/01 10:04:47;;;;;;;8.53;6.03;;;29.90;55.50;;;;;;1818751;78;21170;-85
2022/11/01 10:07:52;;;;;;;7.72;6.28;;;29.90;56.40;;;;;;1819465;78;21144;-87
2022/11/01 10:10:54;;;;;;;10.43;6.40;;;29.80;56.00;;;;;;1814143;76;21083;-83
2022/11/01 10:14:08;;;;;;;10.50;6.83;;;29.80;56.60;;;;;;1799078;79;21235;-84
2022/11/01 10:16:41;;;;;;;12.95;6.42;;;29.80;56.40;;;;;;1812607;78;21150;-86
2022/11/01 10:19:29;;;;;;;11.03;6.35;;;29.70;56.20;;;;;;1819063;78;21154;-87
2022/11/01 10:22:05;;;;;;;10.15;6.35;;;29.70;56.30;;;;;;1814703;78;21151;-86
2022/11/01 10:24:47;;;;;;;8.35;5.75;;;29.60;56.30;;;;;;1808514;78;21203;-85
2022/11/01 10:27:32;;;;;;;11.20;6.37;;;29.60;56.50;;;;;;1804538;78;21143;-84
2022/11/01 10:30:11;;;;;;;10.90;6.20;;;29.50;56.90;;;;;;1800497;78;21189;-84
2022/11/01 10:33:18;;;;;;;10.75;6.42;;;29.40;56.80;;;;;;1803399;77;21331;-87
2022/11/01 10:35:58;;;;;;;8.35;6.33;;;29.40;56.80;;;;;;1850600;77;21098;-85
2022/11/01 10:38:45;;;;;;;10.75;7.12;;;29.30;57.30;;;;;;1828865;77;21118;-85
2022/11/01 10:41:22;;;;;;;11.12;7.70;;;29.30;57.90;;;;;;1791557;80;21135;-85
2022/11/01 10:43:59;;;;;;;13.30;8.55;;;29.30;58.10;;;;;;1834418;77;21429;-84
2022/11/01 10:46:32;;;;;;;;;;;29.20;58.20;;;;;;1857112;76;21157;-86
2022/11/01 10:49:05;;;;;;;13.83;8.98;;;29.20;58.50;;;;;;1790806;79;20226;-85
2022/11/01 10:51:37;;;;;;;10.38;8.60;;;29.20;58.70;;;;;;1864559;76;21139;-84
2022/11/01 10:54:12;;;;;;;14.68;8.23;;;29.10;58.90;;;;;;1865377;76;21218;-85
2022/11/01 10:56:46;;;;;;;15.72;8.73;;;29.10;59.10;;;;;;1865314;76;21221;-84
2022/11/01 10:59:43;;;;;;;15.70;8.43;;;29.10;59.30;;;;;;1870245;76;21199;-84
2022/11/01 11:02:28;;;;;;;11.45;8.03;;;29.00;59.40;;;;;;1869232;76;21131;-85
2022/11/01 11:04:58;;;;;;;10.40;7.40;;;29.00;59.60;;;;;;1866720;76;21146;-85
2022/11/01 11:07:34;;;;;;;9.55;7.78;;;28.90;59.70;;;;;;1854586;76;21208;-84
2022/11/01 11:10:08;;;;;;;13.65;9.80;;;29.00;59.90;;;;;;1856546;77;21484;-85
2022/11/01 11:15:54;;;;;;;11.03;8.45;;;28.90;60.10;;;;;;1830757;78;21554;-85
2022/11/01 11:18:34;;;;;;;16.42;9.70;;;28.90;60.10;;;;;;1833491;76;21546;-86
2022/11/01 11:21:07;;;;;;;14.30;9.80;;;28.90;60.40;;;;;;1847263;76;21088;-86
2022/11/01 11:23:43;;;;;;;15.88;10.55;;;28.90;60.50;;;;;;1777417;80;21141;-85
2022/11/01 11:26:16;;;;;;;19.35;10.53;;;28.90;60.60;;;;;;1768285;80;21177;-88
2022/11/01 11:28:55;;;;;;;15.63;11.45;;;28.80;60.80;;;;;;1833594;76;21179;-85
2022/11/01 11:31:30;;;;;;;17.70;11.20;;;28.80;60.90;;;;;;1847350;76;21245;-86
2022/11/01 11:34:18;;;;;;;14.05;10.38;;;28.80;61.10;;;;;;1845332;76;21204;-85
2022/11/01 11:36:53;;;;;;;16.55;11.03;;;28.70;61.30;;;;;;1853641;76;21131;-85
2022/11/01 11:39:39;;;;;;;16.55;10.30;;;28.70;61.50;;;;;;1836682;76;21155;-84
2022/11/01 11:42:19;;;;;;;15.05;9.90;;;28.70;61.80;;;;;;1850165;76;21178;-85
2022/11/01 11:44:52;;;;;;;16.42;9.90;;;28.70;62.00;;;;;;1846355;76;21195;-85
2022/11/01 11:47:27;;;;;;;16.37;10.72;;;28.70;62.10;;;;;;1856504;76;21253;-85
2022/11/01 11:50:00;;;;;;;16.07;10.35;;;28.70;62.10;;;;;;1849977;76;21135;-84
2022/11/01 11:52:37;;;;;;;17.62;11.45;;;28.60;62.30;;;;;;1834244;76;21135;-86
2022/11/01 11:55:27;;;;;;;14.58;11.63;;;28.60;62.80;;;;;;1853279;76;21555;-86
2022/11/01 11:57:59;;;;;;;22.60;12.63;;;28.50;63.10;;;;;;1847657;76;21215;-85
2022/11/01 12:00:35;;;;;;;18.65;12.10;;;28.50;63.30;;;;;;1849653;76;21267;-86
2022/11/01 12:03:11;;;;;;;19.48;12.60;;;28.40;63.70;;;;;;1845150;76;21206;-84
2022/11/01 12:05:59;;;;;;;22.77;13.80;;;28.40;64.10;;;;;;1849164;76;21218;-85
2022/11/01 12:08:44;;;;;;;23.95;14.30;;;28.40;64.40;;;;;;1869837;76;21088;-85
2022/11/01 12:11:17;;;;;;;25.55;14.20;;;28.30;64.50;;;;;;1857557;76;21093;-85
2022/11/01 12:14:02;;;;;;;27.67;15.13;;;28.30;64.50;;;;;;1858011;76;21221;-84
2022/11/01 12:16:42;;;;;;;24.95;15.60;;;28.30;64.60;;;;;;1828040;76;21221;-85
2022/11/01 12:19:24;;;;;;;23.47;15.35;;;28.20;64.90;;;;;;1851464;76;21206;-85
2022/11/01 12:21:57;;;;;;;27.82;15.53;;;28.20;65.30;;;;;;1850817;76;21155;-87
2022/11/01 12:24:32;;;;;;;26.45;15.10;;;28.20;65.40;;;;;;1847496;76;21128;-86
2022/11/01 12:27:08;;;;;;;25.75;16.05;;;28.10;65.30;;;;;;1847982;76;21210;-84
2022/11/01 12:29:44;;;;;;;29.45;16.50;;;28.10;65.50;;;;;;1842164;77;21206;-84
2022/11/01 12:32:32;;;;;;;27.45;16.62;;;28.10;65.80;;;;;;1846486;76;21134;-87
2022/11/01 12:35:01;;;;;;;26.10;16.07;;;28.00;65.90;;;;;;1848058;76;21139;-86
2022/11/01 12:37:40;;;;;;;27.20;16.75;;;28.00;66.00;;;;;;1857904;76;21159;-85
2022/11/01 12:40:25;;;;;;;27.65;16.17;;;27.90;65.90;;;;;;1862803;76;21193;-86
2022/11/01 12:43:00;;;;;;;23.22;15.53;;;27.90;66.10;;;;;;1842364;76;21064;-86
2022/11/01 12:45:52;;;;;;;21.25;15.45;;;27.90;66.00;;;;;;1850295;76;21175;-85
2022/11/01 12:48:43;;;;;;;24.05;16.82;;;27.80;66.90;;;;;;1857707;76;21122;-86
2022/11/01 12:51:32;;;;;;;26.17;17.20;;;27.70;66.10;;;;;;1847926;76;21139;-85
2022/11/01 12:54:08;;;;;;;28.17;17.50;;;27.80;66.40;;;;;;1821940;78;21213;-86
2022/11/01 12:56:39;;;;;;;24.10;16.02;;;27.70;66.60;;;;;;1845660;76;21186;-87
2022/11/01 12:59:12;;;;;;;26.65;15.58;;;27.70;66.80;;;;;;1843018;76;21213;-86
2022/11/01 13:01:58;;;;;;;24.85;17.07;;;27.70;67.00;;;;;;1841686;76;21195;-85
2022/11/01 13:04:46;;;;;;;24.60;16.48;;;27.60;67.20;;;;;;1849486;76;21661;-85
2022/11/01 13:07:20;;;;;;;28.00;16.75;;;27.60;67.40;;;;;;1853100;76;21244;-84
2022/11/01 13:10:13;;;;;;;30.23;16.93;;;27.60;67.70;;;;;;1860241;76;21131;-83
2022/11/01 13:12:58;;;;;;;23.57;15.68;;;27.50;68.20;;;;;;1803571;79;22034;-84
2022/11/01 13:15:58;;;;;;;23.10;16.35;;;27.50;67.90;;;;;;1838746;76;21082;-84
2022/11/01 13:18:51;;;;;;;23.12;16.42;;;27.50;68.80;;;;;;1807690;78;21206;-84
2022/11/01 13:21:35;;;;;;;25.27;16.32;;;27.40;69.00;;;;;;1810353;78;21188;-83
2022/11/01 13:24:08;;;;;;;29.55;17.40;;;27.40;69.20;;;;;;1803058;78;21184;-87
2022/11/01 13:27:03;;;;;;;24.02;16.77;;;27.40;69.60;;;;;;1800722;79;21092;-84
2022/11/01 13:29:42;;;;;;;23.98;16.75;;;27.40;69.80;;;;;;1797581;79;21115;-85
2022/11/01 13:32:32;;;;;;;24.15;17.87;;;27.40;70.30;;;;;;1796907;79;21187;-83
2022/11/01 13:35:26;;;;;;;26.77;16.35;;;27.40;70.40;;;;;;1806581;78;21196;-86